Greenough, Australia
Current Conditions -  °F | °C
As of 4:30 AM on Friday 21 Nov 2014 (Local Time) from YGEL Reporting Station
NA  
Wind Chill: 55°   Ceiling: NA
Heat Index: 55°   Visibility: NA
Dew Point: 52°   Wind: 0mph
Humidity: 88%   Direction: NA
Pressure: 29.91"   Gusts: NA
Location:  28.95°S, 114.76°E
Report Text: YGEL 202030Z AUTO 00000KT //// // ////// 13/11 Q1013
Loading
Personal Weather Stations






























Interactive Weather Map New forecast layout! Learn more

10-Day Weather Forecast

Advertisements
Track Severe Weather on mobile